Time;durP1;ratioP1;P1;durP2;ratioP2;P2;SDS_P1;SDS_P2;PMS_P1;PMS_P2;Temp;Humidity;BMP_temperature;BMP_pressure;BME280_temperature;BME280_humidity;BME280_pressure;Samples;Min_cycle;Max_cycle;Signal;HPM_P1;HPM_P2
2023/06/03 00:00:41;;;;;;;9.60;6.82;;;16.20;99.90;;;;;;4999648;28;20037;-72
2023/06/03 00:03:13;;;;;;;6.88;5.82;;;16.20;99.90;;;;;;5000631;28;20026;-71
2023/06/03 00:05:40;;;;;;;6.85;6.10;;;16.20;99.90;;;;;;4998708;28;20479;-71
2023/06/03 00:08:05;;;;;;;7.55;5.90;;;16.20;99.90;;;;;;5000242;28;20465;-71
2023/06/03 00:10:31;;;;;;;7.53;5.75;;;16.20;99.90;;;;;;5000253;28;20050;-71
2023/06/03 00:12:57;;;;;;;8.93;6.32;;;16.20;99.90;;;;;;5000337;28;20019;-71
2023/06/03 00:15:22;;;;;;;6.65;5.80;;;16.20;99.90;;;;;;5000051;28;20055;-72
2023/06/03 00:17:48;;;;;;;8.63;6.07;;;16.20;99.90;;;;;;4999922;28;20482;-71
2023/06/03 00:20:14;;;;;;;6.88;5.63;;;16.10;99.90;;;;;;5000010;28;20037;-71
2023/06/03 00:22:40;;;;;;;6.55;5.57;;;16.10;99.90;;;;;;5000009;28;20053;-71
2023/06/03 00:25:07;;;;;;;7.13;5.60;;;16.10;99.90;;;;;;5000105;28;20039;-71
2023/06/03 00:27:34;;;;;;;8.02;5.13;;;16.10;99.90;;;;;;5000003;28;20109;-71
2023/06/03 00:30:01;;;;;;;7.45;5.35;;;16.10;99.90;;;;;;4999760;28;20081;-71
2023/06/03 00:32:27;;;;;;;7.30;5.47;;;16.00;99.90;;;;;;4999994;28;20029;-71
2023/06/03 00:34:53;;;;;;;7.72;5.97;;;16.00;99.90;;;;;;4998581;28;20014;-71
2023/06/03 00:37:18;;;;;;;7.50;5.80;;;16.00;99.90;;;;;;5000102;28;20030;-71
2023/06/03 00:39:44;;;;;;;5.88;5.13;;;16.00;99.90;;;;;;4999540;28;20414;-71
2023/06/03 00:42:10;;;;;;;7.25;6.28;;;16.00;99.90;;;;;;4999873;28;20077;-71
2023/06/03 00:44:35;;;;;;;7.00;6.03;;;15.90;99.90;;;;;;4999659;28;20019;-71
2023/06/03 00:47:02;;;;;;;7.60;5.32;;;15.90;99.90;;;;;;4999796;28;20035;-71
2023/06/03 00:49:28;;;;;;;11.20;6.13;;;15.90;99.90;;;;;;4999432;28;20028;-71
2023/06/03 00:51:54;;;;;;;8.23;5.93;;;15.90;99.90;;;;;;4982414;28;20394;-71
2023/06/03 00:54:20;;;;;;;7.35;5.88;;;15.90;99.90;;;;;;4981864;28;20019;-71
2023/06/03 00:56:47;;;;;;;8.77;6.13;;;15.80;99.90;;;;;;4999448;28;20101;-71
2023/06/03 00:59:15;;;;;;;7.22;6.10;;;15.80;99.90;;;;;;4999000;28;20451;-71
2023/06/03 01:01:44;;;;;;;7.28;6.20;;;15.80;99.90;;;;;;4999564;28;20038;-71
2023/06/03 01:04:11;;;;;;;9.98;6.78;;;15.90;99.90;;;;;;5001208;28;20109;-71
2023/06/03 01:06:52;;;;;;;9.32;6.90;;;15.90;99.90;;;;;;4999376;28;20221;-71
2023/06/03 01:09:37;;;;;;;9.23;7.82;;;16.00;99.90;;;;;;4999323;28;20102;-71
2023/06/03 01:12:27;;;;;;;11.13;7.65;;;16.10;99.90;;;;;;4995186;28;20026;-71
2023/06/03 01:14:55;;;;;;;;;;;16.20;99.90;;;;;;4981178;28;20015;-71
2023/06/03 01:17:27;;;;;;;9.77;8.55;;;16.30;99.90;;;;;;4999208;28;20358;-71
2023/06/03 01:19:56;;;;;;;9.57;7.80;;;16.40;99.90;;;;;;4998963;28;20041;-71
2023/06/03 01:22:26;;;;;;;10.85;8.38;;;16.50;99.90;;;;;;4978316;28;20030;-71
2023/06/03 01:25:06;;;;;;;11.63;9.40;;;16.60;99.90;;;;;;4999025;28;20046;-71
2023/06/03 01:27:32;;;;;;;8.73;7.83;;;16.70;99.90;;;;;;4998656;28;20312;-71
2023/06/03 01:29:59;;;;;;;10.65;8.90;;;16.70;99.90;;;;;;4998640;28;20258;-71
2023/06/03 01:32:25;;;;;;;10.55;8.18;;;16.70;99.90;;;;;;4998996;28;20022;-71
2023/06/03 01:34:51;;;;;;;11.30;9.77;;;16.70;99.90;;;;;;4998737;28;20395;-71
2023/06/03 01:37:18;;;;;;;13.52;8.88;;;16.70;99.90;;;;;;4998823;28;20105;-71
2023/06/03 01:39:44;;;;;;;11.65;9.13;;;16.70;99.90;;;;;;4998557;28;20097;-70
2023/06/03 01:42:11;;;;;;;12.25;8.98;;;16.70;99.90;;;;;;4981150;28;20104;-70
2023/06/03 01:44:37;;;;;;;11.32;8.73;;;16.80;99.90;;;;;;4998243;28;20065;-70
2023/06/03 01:47:04;;;;;;;11.85;9.68;;;16.80;99.90;;;;;;4998460;28;20114;-70
2023/06/03 01:49:31;;;;;;;13.27;10.00;;;16.80;99.90;;;;;;4998423;28;20046;-71
2023/06/03 01:52:01;;;;;;;14.50;9.27;;;16.80;99.90;;;;;;4991058;28;20022;-70
2023/06/03 01:54:27;;;;;;;10.68;9.27;;;16.70;99.90;;;;;;4998649;28;20057;-71
2023/06/03 01:56:54;;;;;;;14.82;9.38;;;16.70;99.90;;;;;;4990132;28;20431;-71
2023/06/03 01:59:24;;;;;;;11.77;9.80;;;16.60;99.90;;;;;;4990396;28;20038;-71
2023/06/03 02:01:57;;;;;;;12.98;9.30;;;16.50;99.90;;;;;;4980948;28;20022;-71
2023/06/03 02:04:23;;;;;;;13.68;9.15;;;16.40;99.90;;;;;;4976139;28;20026;-71
2023/06/03 02:06:58;;;;;;;14.32;9.68;;;16.30;99.90;;;;;;4998158;28;20034;-71
2023/06/03 02:09:25;;;;;;;12.23;9.00;;;16.10;99.90;;;;;;4998105;28;20041;-71
2023/06/03 02:11:58;;;;;;;13.77;9.35;;;16.00;99.90;;;;;;4998116;28;20112;-70
2023/06/03 02:14:26;;;;;;;11.25;8.80;;;15.90;99.90;;;;;;4997867;28;20086;-71
2023/06/03 02:16:52;;;;;;;11.90;9.00;;;15.90;99.90;;;;;;4998105;28;20049;-71
2023/06/03 02:19:26;;;;;;;13.75;9.68;;;15.90;99.90;;;;;;4997892;28;20085;-70
2023/06/03 02:21:56;;;;;;;12.23;9.57;;;15.80;99.90;;;;;;4997816;28;20027;-71
2023/06/03 02:24:23;;;;;;;12.75;9.10;;;15.80;99.90;;;;;;4997408;28;20026;-71
2023/06/03 02:26:52;;;;;;;13.00;9.45;;;15.70;99.90;;;;;;4976794;28;20038;-71
2023/06/03 02:29:22;;;;;;;15.68;9.88;;;15.70;99.90;;;;;;4990829;28;20022;-72
2023/06/03 02:31:52;;;;;;;12.15;10.57;;;15.70;99.90;;;;;;5006123;28;20045;-71
2023/06/03 02:34:18;;;;;;;12.67;9.77;;;15.60;99.90;;;;;;4997447;28;20042;-72
2023/06/03 02:36:44;;;;;;;11.95;9.02;;;15.60;99.90;;;;;;4997814;28;20019;-72
2023/06/03 02:39:11;;;;;;;12.07;10.35;;;15.60;99.90;;;;;;4979929;28;20091;-72
2023/06/03 02:41:38;;;;;;;13.68;9.38;;;15.60;99.90;;;;;;4997602;28;20022;-71
2023/06/03 02:44:04;;;;;;;12.75;10.15;;;15.50;99.90;;;;;;4997334;28;20033;-72
2023/06/03 02:46:30;;;;;;;13.05;9.95;;;15.50;99.90;;;;;;4997601;28;20027;-72
2023/06/03 02:48:56;;;;;;;12.75;9.88;;;15.50;99.90;;;;;;4981317;28;20026;-71
2023/06/03 02:51:22;;;;;;;14.05;9.95;;;15.40;99.90;;;;;;4997762;28;20414;-72
2023/06/03 02:53:48;;;;;;;11.57;9.63;;;15.40;99.90;;;;;;4997305;28;20113;-71
2023/06/03 02:56:14;;;;;;;13.82;9.48;;;15.40;99.90;;;;;;4997437;28;20037;-72
2023/06/03 02:58:40;;;;;;;17.23;9.88;;;15.30;99.90;;;;;;4980144;28;20037;-71
2023/06/03 03:01:06;;;;;;;11.73;9.80;;;15.30;99.90;;;;;;4996919;28;20034;-71
2023/06/03 03:03:37;;;;;;;11.15;9.93;;;15.30;99.90;;;;;;4997891;28;20030;-71
2023/06/03 03:06:03;;;;;;;12.18;9.57;;;15.20;99.90;;;;;;4982373;28;20538;-71
2023/06/03 03:08:31;;;;;;;13.38;9.77;;;15.20;99.90;;;;;;4997049;28;20092;-71
2023/06/03 03:10:56;;;;;;;11.52;10.32;;;15.20;99.90;;;;;;4997222;28;20022;-72
2023/06/03 03:13:22;;;;;;;13.88;10.00;;;15.10;99.90;;;;;;4997457;28;20033;-71
2023/06/03 03:15:47;;;;;;;13.65;10.05;;;15.10;99.90;;;;;;4997016;28;20019;-71
2023/06/03 03:18:14;;;;;;;12.05;10.00;;;15.10;99.90;;;;;;4997299;28;20031;-71
2023/06/03 03:20:40;;;;;;;12.68;10.00;;;15.00;99.90;;;;;;4979564;28;20023;-71
2023/06/03 03:23:07;;;;;;;13.68;10.00;;;15.00;99.90;;;;;;4997226;28;20387;-71
2023/06/03 03:25:34;;;;;;;13.30;10.70;;;15.00;99.90;;;;;;4997028;28;20022;-71
2023/06/03 03:28:00;;;;;;;13.05;10.20;;;14.90;99.90;;;;;;4997128;28;20110;-71
2023/06/03 03:30:26;;;;;;;16.35;10.20;;;14.90;99.90;;;;;;4996795;28;20054;-71
2023/06/03 03:32:51;;;;;;;15.15;9.98;;;14.90;99.90;;;;;;4997300;28;20108;-71
2023/06/03 03:35:20;;;;;;;12.20;10.15;;;14.80;99.90;;;;;;4999588;28;20046;-71
2023/06/03 03:37:46;;;;;;;11.40;10.02;;;14.80;99.90;;;;;;5001052;28;20026;-72
2023/06/03 03:40:20;;;;;;;13.82;11.20;;;14.80;99.90;;;;;;5000801;28;20089;-71
2023/06/03 03:42:51;;;;;;;12.70;9.90;;;14.80;99.90;;;;;;5000856;28;20039;-71
2023/06/03 03:45:19;;;;;;;14.57;10.93;;;14.70;99.90;;;;;;5000814;28;20026;-72
2023/06/03 03:47:51;;;;;;;13.27;10.98;;;14.70;99.90;;;;;;4992618;28;20490;-71
2023/06/03 03:50:38;;;;;;;15.15;10.43;;;14.70;99.90;;;;;;5001626;28;20019;-71
2023/06/03 03:53:13;;;;;;;12.68;10.50;;;14.70;99.90;;;;;;5000704;28;20029;-71
2023/06/03 03:55:41;;;;;;;13.82;9.63;;;14.60;99.90;;;;;;5000470;28;20019;-71
2023/06/03 03:58:16;;;;;;;14.52;11.10;;;14.60;99.90;;;;;;5017832;28;20061;-71
2023/06/03 04:00:43;;;;;;;21.17;12.05;;;14.60;99.90;;;;;;5019881;28;20033;-71
2023/06/03 04:03:11;;;;;;;12.70;10.15;;;14.60;99.90;;;;;;5020107;28;20522;-72
2023/06/03 04:05:37;;;;;;;14.88;10.88;;;14.60;99.90;;;;;;5018086;28;20080;-71
2023/06/03 04:08:06;;;;;;;15.23;11.18;;;14.60;99.90;;;;;;5019898;28;20102;-72
2023/06/03 04:10:33;;;;;;;12.57;10.55;;;14.50;99.90;;;;;;5018606;28;20060;-72
2023/06/03 04:12:58;;;;;;;16.70;11.63;;;14.50;99.90;;;;;;5002234;28;20025;-71
2023/06/03 04:15:32;;;;;;;12.82;10.50;;;14.50;99.90;;;;;;5019815;28;20022;-71
2023/06/03 04:17:58;;;;;;;20.13;13.00;;;14.50;99.90;;;;;;5011679;28;20103;-71
2023/06/03 04:20:42;;;;;;;14.93;12.93;;;14.50;99.90;;;;;;5019761;28;20018;-71
2023/06/03 04:23:15;;;;;;;19.13;13.35;;;14.60;99.90;;;;;;5001043;28;20037;-71
2023/06/03 04:25:41;;;;;;;19.73;14.02;;;14.70;99.90;;;;;;5001970;28;20072;-71
2023/06/03 04:28:08;;;;;;;16.70;13.82;;;14.70;99.90;;;;;;5001967;28;20097;-71
2023/06/03 04:30:36;;;;;;;16.08;12.95;;;14.70;99.90;;;;;;5019407;28;20474;-71
2023/06/03 04:33:01;;;;;;;16.88;12.10;;;14.70;99.90;;;;;;5019745;28;20018;-71
2023/06/03 04:35:27;;;;;;;19.38;13.48;;;14.70;99.90;;;;;;5019439;28;20029;-71
2023/06/03 04:37:53;;;;;;;17.35;12.60;;;14.70;99.90;;;;;;5019615;28;20034;-72
2023/06/03 04:40:18;;;;;;;17.08;13.57;;;14.70;99.90;;;;;;5008982;28;20030;-71
2023/06/03 04:42:46;;;;;;;19.38;14.40;;;14.70;99.90;;;;;;5019263;28;20085;-72
2023/06/03 04:45:12;;;;;;;24.10;15.68;;;14.80;99.90;;;;;;5010965;28;20017;-72
2023/06/03 04:47:41;;;;;;;20.70;15.45;;;14.80;99.90;;;;;;5015534;28;20026;-71
2023/06/03 04:50:08;;;;;;;23.67;17.13;;;14.90;99.90;;;;;;5019309;28;20026;-71
2023/06/03 04:52:35;;;;;;;21.30;17.50;;;15.00;99.90;;;;;;4998358;28;20049;-71
2023/06/03 04:55:04;;;;;;;26.20;19.13;;;15.20;99.90;;;;;;5013346;28;20018;-71
2023/06/03 04:57:30;;;;;;;26.40;19.13;;;15.30;99.90;;;;;;5017579;28;20041;-71
2023/06/03 04:59:57;;;;;;;27.25;19.55;;;15.50;99.90;;;;;;5018777;28;20044;-71
2023/06/03 05:02:23;;;;;;;24.88;18.92;;;15.60;99.90;;;;;;5019012;28;20033;-72
2023/06/03 05:04:49;;;;;;;25.13;17.80;;;15.70;99.90;;;;;;5024326;28;20018;-71
2023/06/03 05:07:15;;;;;;;23.65;17.17;;;15.60;99.90;;;;;;5018944;28;20022;-72
2023/06/03 05:09:41;;;;;;;23.17;17.13;;;15.70;99.90;;;;;;5001488;28;20029;-71
2023/06/03 05:12:07;;;;;;;21.10;15.82;;;15.70;99.90;;;;;;5018492;28;20032;-72
2023/06/03 05:14:33;;;;;;;24.75;16.13;;;15.70;99.90;;;;;;5018556;28;20018;-71
2023/06/03 05:16:59;;;;;;;18.42;15.35;;;15.70;99.90;;;;;;5018657;28;20552;-71
2023/06/03 05:19:24;;;;;;;20.40;15.75;;;15.70;99.90;;;;;;5018859;28;20058;-72
2023/06/03 05:21:50;;;;;;;19.95;15.70;;;15.70;99.90;;;;;;5018450;28;20851;-71
2023/06/03 05:24:16;;;;;;;23.10;14.85;;;15.80;99.90;;;;;;5018698;28;20033;-71
2023/06/03 05:26:41;;;;;;;21.45;16.50;;;15.80;99.90;;;;;;5018169;28;20037;-71
2023/06/03 05:29:07;;;;;;;18.08;14.98;;;15.90;99.90;;;;;;5018659;28;20093;-72
2023/06/03 05:31:32;;;;;;;18.92;14.60;;;15.90;99.90;;;;;;5018358;28;20033;-71
2023/06/03 05:33:58;;;;;;;19.13;16.05;;;15.90;99.90;;;;;;5018505;28;20482;-70
2023/06/03 05:36:26;;;;;;;17.83;15.88;;;16.00;99.90;;;;;;5018128;28;20026;-71
2023/06/03 05:38:52;;;;;;;19.00;15.18;;;16.00;99.90;;;;;;5018590;28;20041;-71
2023/06/03 05:41:17;;;;;;;23.58;17.17;;;16.10;99.90;;;;;;5017970;28;20033;-71
2023/06/03 05:43:43;;;;;;;18.67;15.38;;;16.10;99.90;;;;;;5000583;28;20095;-71
2023/06/03 05:46:10;;;;;;;19.48;14.57;;;16.20;99.90;;;;;;5018209;28;20105;-71
2023/06/03 05:48:35;;;;;;;16.40;13.73;;;16.20;99.90;;;;;;5018125;28;20026;-71
2023/06/03 05:51:01;;;;;;;19.63;13.98;;;16.20;99.90;;;;;;5014920;28;20022;-72
2023/06/03 05:53:27;;;;;;;18.83;15.23;;;16.30;99.90;;;;;;5018198;28;20018;-72
2023/06/03 05:55:53;;;;;;;21.50;13.82;;;16.30;99.90;;;;;;5015792;28;20018;-72
2023/06/03 05:58:20;;;;;;;17.67;12.93;;;16.40;99.90;;;;;;5017474;28;20049;-71
2023/06/03 06:00:46;;;;;;;17.95;13.23;;;16.50;99.90;;;;;;5017684;28;20069;-72
2023/06/03 06:03:15;;;;;;;15.00;11.40;;;16.60;99.90;;;;;;5010885;28;20111;-72
2023/06/03 06:05:41;;;;;;;16.20;10.55;;;16.70;99.90;;;;;;5028287;28;20137;-69
2023/06/03 06:08:07;;;;;;;13.55;10.20;;;16.80;99.90;;;;;;5000028;28;20034;-71
2023/06/03 06:10:33;;;;;;;13.80;8.85;;;16.90;99.90;;;;;;5017431;28;20022;-71
2023/06/03 06:12:58;;;;;;;12.85;9.73;;;17.10;99.90;;;;;;5017910;28;20029;-70
2023/06/03 06:15:29;;;;;;;14.68;8.60;;;17.20;99.90;;;;;;5017336;28;20080;-70
2023/06/03 06:17:54;;;;;;;11.23;9.30;;;17.30;99.90;;;;;;5017640;28;20503;-71
2023/06/03 06:20:20;;;;;;;11.85;7.53;;;17.40;99.90;;;;;;5017635;28;20379;-71
2023/06/03 06:22:48;;;;;;;16.55;8.82;;;17.40;99.90;;;;;;5017470;28;20101;-70
2023/06/03 06:25:15;;;;;;;9.23;8.32;;;17.50;99.90;;;;;;5010506;28;20030;-71
2023/06/03 06:27:41;;;;;;;11.05;8.98;;;17.60;99.90;;;;;;5000307;28;20025;-70
2023/06/03 06:30:07;;;;;;;10.38;8.27;;;17.70;99.90;;;;;;5016472;28;20489;-71
2023/06/03 06:32:46;;;;;;;10.32;8.38;;;17.80;99.90;;;;;;5017550;28;20050;-71
2023/06/03 06:35:12;;;;;;;12.73;8.02;;;17.90;99.90;;;;;;5017615;28;20030;-71
2023/06/03 06:37:38;;;;;;;15.02;8.60;;;17.90;99.90;;;;;;5017329;28;20088;-71
2023/06/03 06:40:05;;;;;;;9.77;8.05;;;18.10;99.90;;;;;;4999659;28;20030;-71
2023/06/03 06:42:35;;;;;;;8.25;7.35;;;18.20;99.90;;;;;;5017137;28;20426;-70
2023/06/03 06:45:33;;;;;;;11.52;8.63;;;18.30;99.90;;;;;;5016102;28;20021;-71
2023/06/03 06:48:10;;;;;;;10.35;8.02;;;18.40;99.90;;;;;;5016363;28;20406;-70
2023/06/03 06:50:45;;;;;;;14.43;8.48;;;18.50;99.90;;;;;;5017179;28;20024;-71
2023/06/03 06:53:11;;;;;;;13.20;9.15;;;18.60;99.90;;;;;;5016971;28;20018;-70
2023/06/03 06:55:59;;;;;;;19.00;10.25;;;18.60;99.90;;;;;;5017007;28;20080;-71
2023/06/03 06:58:26;;;;;;;11.43;9.43;;;18.80;99.90;;;;;;5009362;28;20046;-70
2023/06/03 07:00:52;;;;;;;12.50;9.48;;;18.70;99.90;;;;;;5016763;28;20375;-70
2023/06/03 07:03:19;;;;;;;15.38;9.98;;;18.70;99.90;;;;;;5016745;28;20088;-70
2023/06/03 07:05:46;;;;;;;13.50;9.52;;;19.00;99.90;;;;;;5024427;28;20021;-70
2023/06/03 07:08:12;;;;;;;13.43;9.25;;;19.10;99.90;;;;;;5017011;28;20026;-70
2023/06/03 07:10:38;;;;;;;11.95;9.85;;;19.20;99.90;;;;;;5020190;28;20033;-70
2023/06/03 07:13:06;;;;;;;11.07;8.55;;;19.10;99.90;;;;;;5021064;28;20018;-70
2023/06/03 07:15:32;;;;;;;15.88;10.18;;;19.20;99.90;;;;;;5018512;28;20113;-72
2023/06/03 07:17:58;;;;;;;11.23;9.48;;;19.20;99.90;;;;;;5020780;28;20506;-72
2023/06/03 07:20:32;;;;;;;14.48;9.85;;;19.40;99.90;;;;;;5003245;28;20022;-71
2023/06/03 07:22:59;;;;;;;9.98;8.88;;;19.70;99.90;;;;;;5020290;28;20049;-71
2023/06/03 07:25:30;;;;;;;13.30;9.52;;;19.90;99.90;;;;;;5002798;28;20026;-71
2023/06/03 07:27:56;;;;;;;13.32;9.77;;;19.80;99.90;;;;;;5002907;28;20081;-71
2023/06/03 07:30:22;;;;;;;11.90;10.68;;;19.70;99.90;;;;;;5020706;28;20602;-71
2023/06/03 07:32:49;;;;;;;11.30;10.10;;;19.70;99.90;;;;;;5020648;28;20034;-71
2023/06/03 07:35:19;;;;;;;12.77;9.90;;;19.60;99.90;;;;;;5020626;28;20536;-71
2023/06/03 07:37:45;;;;;;;;;;;19.60;99.90;;;;;;5020469;28;20491;-71
2023/06/03 07:40:18;;;;;;;15.63;9.73;;;19.60;99.90;;;;;;5016832;28;19913;-71
2023/06/03 07:42:47;;;;;;;12.30;9.55;;;19.70;99.90;;;;;;5017077;28;20014;-71
2023/06/03 07:45:13;;;;;;;12.65;9.40;;;19.80;99.90;;;;;;5020195;28;20459;-71
2023/06/03 07:47:40;;;;;;;14.50;10.43;;;19.80;99.90;;;;;;4999100;28;20022;-72
2023/06/03 07:50:25;;;;;;;14.93;10.68;;;20.10;99.90;;;;;;5014999;28;20501;-71
2023/06/03 07:53:03;;;;;;;12.10;9.70;;;20.40;99.90;;;;;;5020281;28;20033;-71
2023/06/03 07:55:46;;;;;;;16.13;9.05;;;20.60;99.90;;;;;;5002318;28;20030;-71
2023/06/03 07:58:16;;;;;;;12.32;8.45;;;20.90;99.90;;;;;;4992294;28;20046;-71
2023/06/03 08:00:49;;;;;;;12.30;8.02;;;21.20;99.90;;;;;;5000278;28;20852;-72
2023/06/03 08:03:18;;;;;;;8.60;7.22;;;21.30;99.90;;;;;;5000475;28;20027;-71
2023/06/03 08:05:47;;;;;;;9.45;6.55;;;21.50;99.90;;;;;;5002183;28;20458;-71
2023/06/03 08:08:14;;;;;;;10.20;7.00;;;21.60;99.90;;;;;;5000389;28;20076;-72
2023/06/03 08:10:42;;;;;;;7.50;6.15;;;21.70;99.90;;;;;;5000065;28;20030;-71
2023/06/03 08:13:08;;;;;;;11.40;6.43;;;21.80;99.90;;;;;;5000417;28;20027;-71
2023/06/03 08:15:35;;;;;;;7.30;5.80;;;22.00;99.90;;;;;;4982412;28;20080;-71
2023/06/03 08:18:05;;;;;;;7.57;5.35;;;22.00;99.90;;;;;;5000516;28;20022;-71
2023/06/03 08:20:33;;;;;;;8.30;6.53;;;22.00;99.90;;;;;;4999955;28;20026;-72
2023/06/03 08:22:59;;;;;;;8.43;5.90;;;21.90;99.90;;;;;;5000019;28;20034;-72
2023/06/03 08:25:24;;;;;;;8.25;5.32;;;22.10;99.90;;;;;;4999957;28;20037;-71
2023/06/03 08:27:51;;;;;;;7.88;5.25;;;22.20;99.90;;;;;;5000241;28;20509;-71
2023/06/03 08:30:18;;;;;;;8.07;5.43;;;22.20;99.90;;;;;;4998497;28;20018;-71
2023/06/03 08:32:44;;;;;;;8.70;5.90;;;22.20;99.90;;;;;;4999908;28;20038;-71
2023/06/03 08:35:13;;;;;;;8.45;5.18;;;22.30;99.90;;;;;;4999975;28;20032;-71
2023/06/03 08:37:39;;;;;;;8.20;5.78;;;22.30;99.90;;;;;;4999789;28;20023;-71
2023/06/03 08:40:08;;;;;;;10.93;6.43;;;22.40;99.90;;;;;;4999908;28;20026;-71
2023/06/03 08:42:43;;;;;;;6.65;4.80;;;22.50;99.90;;;;;;4999894;28;20038;-71
2023/06/03 08:45:10;;;;;;;7.07;5.13;;;22.40;99.90;;;;;;4999098;28;20037;-71
2023/06/03 08:47:52;;;;;;;6.88;5.03;;;22.60;99.90;;;;;;4999405;28;20050;-71
2023/06/03 08:50:25;;;;;;;12.07;5.65;;;22.60;99.90;;;;;;4999468;28;20019;-70
2023/06/03 08:52:56;;;;;;;7.47;5.22;;;22.70;99.90;;;;;;4999646;28;20093;-69
2023/06/03 08:55:22;;;;;;;7.45;4.53;;;22.80;99.90;;;;;;4999301;28;20033;-70
2023/06/03 08:58:02;;;;;;;7.50;4.68;;;23.00;99.90;;;;;;4999461;28;20038;-70
2023/06/03 09:00:30;;;;;;;5.65;4.53;;;23.10;99.90;;;;;;4981478;28;20081;-70
2023/06/03 09:02:56;;;;;;;8.20;4.28;;;23.00;99.90;;;;;;4999611;28;20026;-70
2023/06/03 09:05:22;;;;;;;9.30;4.72;;;23.10;99.90;;;;;;5002946;28;20037;-71
2023/06/03 09:07:50;;;;;;;7.78;5.07;;;23.30;99.90;;;;;;4981573;28;20025;-70
2023/06/03 09:10:22;;;;;;;9.95;4.97;;;23.40;99.90;;;;;;4999152;28;20026;-70
2023/06/03 09:12:48;;;;;;;5.93;4.63;;;23.60;99.90;;;;;;4999004;28;20038;-69
2023/06/03 09:15:15;;;;;;;7.25;5.03;;;23.60;99.90;;;;;;4998994;28;20023;-69
2023/06/03 09:17:44;;;;;;;7.10;4.75;;;23.50;99.90;;;;;;4997943;28;20026;-69
2023/06/03 09:20:11;;;;;;;5.20;4.20;;;23.40;99.90;;;;;;4999072;28;20030;-70
2023/06/03 09:22:38;;;;;;;9.82;4.97;;;23.60;99.90;;;;;;4999004;28;20029;-70
2023/06/03 09:25:05;;;;;;;7.60;4.80;;;23.70;99.90;;;;;;4998880;28;20037;-69
2023/06/03 09:27:32;;;;;;;13.75;4.70;;;23.80;99.90;;;;;;4998710;28;20015;-70
2023/06/03 09:30:00;;;;;;;6.07;4.65;;;23.80;99.90;;;;;;4981285;28;20038;-70
2023/06/03 09:32:26;;;;;;;7.53;4.55;;;24.00;99.90;;;;;;4997874;28;20023;-70
2023/06/03 09:34:53;;;;;;;7.28;4.25;;;24.10;99.90;;;;;;4998674;28;20023;-69
2023/06/03 09:37:19;;;;;;;8.63;4.07;;;24.00;99.90;;;;;;4981070;28;20034;-70
2023/06/03 09:39:45;;;;;;;9.27;4.20;;;24.00;99.90;;;;;;4998590;28;20041;-69
2023/06/03 09:42:11;;;;;;;6.10;4.30;;;24.10;99.90;;;;;;4998609;28;20073;-70
2023/06/03 09:44:45;;;;;;;6.38;4.15;;;24.20;99.90;;;;;;4998501;28;20034;-70
2023/06/03 09:47:11;;;;;;;5.05;3.75;;;24.20;99.90;;;;;;4998505;28;20022;-69
2023/06/03 09:49:38;;;;;;;7.53;4.65;;;24.20;99.90;;;;;;5004911;28;20030;-70
2023/06/03 09:52:09;;;;;;;6.78;3.90;;;24.20;99.90;;;;;;5000608;28;20025;-69
2023/06/03 09:54:35;;;;;;;7.25;4.07;;;24.40;99.90;;;;;;4997773;28;20033;-70
2023/06/03 09:57:12;;;;;;;7.07;3.83;;;24.40;99.90;;;;;;4997664;28;20038;-70
2023/06/03 09:59:40;;;;;;;7.28;3.85;;;24.50;99.90;;;;;;4998227;28;20038;-70
2023/06/03 10:02:12;;;;;;;10.02;4.45;;;24.60;99.90;;;;;;4998310;28;20141;-70
2023/06/03 10:04:39;;;;;;;5.05;3.70;;;24.80;99.90;;;;;;4981563;28;20356;-69
2023/06/03 10:07:10;;;;;;;9.55;4.25;;;24.80;99.90;;;;;;4980679;28;20037;-69
2023/06/03 10:09:37;;;;;;;4.95;3.38;;;24.90;99.90;;;;;;4998218;28;20026;-70
2023/06/03 10:12:03;;;;;;;8.20;4.32;;;24.90;99.90;;;;;;4997965;28;20022;-70
2023/06/03 10:14:29;;;;;;;7.22;3.85;;;24.80;99.90;;;;;;4997997;28;20054;-70
2023/06/03 10:17:13;;;;;;;8.43;3.80;;;25.00;99.90;;;;;;4998032;28;20018;-70
2023/06/03 10:19:41;;;;;;;9.38;3.90;;;25.00;99.90;;;;;;4998029;28;20033;-70
2023/06/03 10:22:09;;;;;;;5.72;4.53;;;24.80;99.90;;;;;;4997181;28;20363;-70
2023/06/03 10:24:39;;;;;;;6.45;3.92;;;24.80;99.90;;;;;;4997747;28;20456;-70
2023/06/03 10:27:06;;;;;;;5.65;3.90;;;24.80;99.90;;;;;;4986216;28;20029;-70
2023/06/03 10:29:33;;;;;;;5.38;4.07;;;24.80;99.90;;;;;;4980053;28;20026;-70
2023/06/03 10:32:02;;;;;;;10.02;3.63;;;25.00;99.90;;;;;;4997857;28;20113;-70
2023/06/03 10:34:29;;;;;;;5.45;3.30;;;25.30;99.90;;;;;;4980346;28;20033;-70
2023/06/03 10:36:57;;;;;;;4.80;3.60;;;25.30;99.90;;;;;;4997776;28;20161;-70
2023/06/03 10:39:27;;;;;;;4.32;3.35;;;25.30;99.90;;;;;;4997769;28;20471;-70
2023/06/03 10:42:09;;;;;;;6.63;3.60;;;25.30;99.90;;;;;;4979974;28;20026;-71
2023/06/03 10:44:35;;;;;;;6.55;3.90;;;25.40;99.90;;;;;;4997200;28;20033;-71
2023/06/03 10:47:20;;;;;;;5.28;3.58;;;25.50;99.90;;;;;;4997324;28;20054;-70
2023/06/03 10:49:50;;;;;;;7.65;3.58;;;25.50;99.90;;;;;;4979942;28;20027;-71
2023/06/03 10:52:34;;;;;;;;;;;25.60;99.90;;;;;;4998027;28;20390;-71
2023/06/03 10:55:38;;;;;;;6.40;3.72;;;25.60;99.90;;;;;;4987628;28;19993;-70
2023/06/03 10:58:13;;;;;;;8.88;3.95;;;25.60;99.90;;;;;;4992199;28;20046;-71
2023/06/03 11:01:02;;;;;;;7.70;3.80;;;25.80;99.90;;;;;;5010152;28;20132;-71
2023/06/03 11:03:30;;;;;;;4.35;3.58;;;26.00;99.90;;;;;;5010335;28;20073;-71
2023/06/03 11:06:22;;;;;;;5.63;3.95;;;25.90;99.90;;;;;;5006268;28;20030;-71
2023/06/03 11:09:12;;;;;;;5.70;3.55;;;26.00;99.90;;;;;;5006474;28;20088;-72
2023/06/03 11:11:41;;;;;;;3.95;3.08;;;26.10;99.90;;;;;;5016778;28;20126;-71
2023/06/03 11:14:08;;;;;;;5.35;3.20;;;26.10;99.90;;;;;;5015820;28;20022;-71
2023/06/03 11:16:55;;;;;;;4.60;3.10;;;25.90;99.90;;;;;;5016902;28;20022;-72
2023/06/03 11:19:37;;;;;;;3.95;3.33;;;26.00;99.90;;;;;;5017022;28;20045;-71
2023/06/03 11:22:04;;;;;;;5.13;3.38;;;26.00;99.90;;;;;;5016555;28;20070;-72
2023/06/03 11:24:39;;;;;;;5.15;3.50;;;26.20;99.90;;;;;;5016768;28;20026;-72
2023/06/03 11:27:11;;;;;;;5.30;3.25;;;26.30;99.90;;;;;;5016744;28;20037;-72
2023/06/03 11:29:51;;;;;;;5.72;3.45;;;26.40;99.90;;;;;;5016700;28;20022;-71
2023/06/03 11:32:24;;;;;;;;;;;26.40;99.90;;;;;;5017272;28;20037;-72
2023/06/03 11:35:00;;;;;;;5.22;3.45;;;26.60;99.90;;;;;;5014806;28;19905;-72
2023/06/03 11:37:41;;;;;;;6.00;3.70;;;26.70;99.90;;;;;;4998001;28;20030;-72
2023/06/03 11:40:21;;;;;;;5.35;3.15;;;26.90;99.90;;;;;;5013205;28;20034;-72
2023/06/03 11:42:46;;;;;;;5.93;3.83;;;26.80;99.90;;;;;;5016798;28;20410;-72
2023/06/03 11:45:21;;;;;;;5.38;3.58;;;26.70;99.90;;;;;;5016435;28;20344;-72
2023/06/03 11:47:55;;;;;;;4.43;3.20;;;26.80;99.90;;;;;;5016431;28;20108;-72
2023/06/03 11:50:26;;;;;;;5.22;3.30;;;26.80;99.90;;;;;;5016926;28;20022;-72
2023/06/03 11:52:53;;;;;;;8.57;4.82;;;26.90;99.90;;;;;;5010946;28;20018;-71
2023/06/03 11:55:27;;;;;;;8.10;4.70;;;26.90;99.90;;;;;;5017368;28;20082;-71
2023/06/03 11:57:54;;;;;;;4.05;3.05;;;27.00;99.90;;;;;;5002397;28;20056;-72
2023/06/03 12:00:20;;;;;;;6.95;3.40;;;26.90;99.90;;;;;;5019853;28;20025;-72
2023/06/03 12:02:46;;;;;;;5.32;3.00;;;26.90;99.90;;;;;;5012765;28;20052;-72
2023/06/03 12:05:15;;;;;;;5.53;3.40;;;26.90;99.70;;;;;;5019938;28;20025;-71
2023/06/03 12:07:53;;;;;;;6.18;3.30;;;26.80;98.90;;;;;;5002274;28;20049;-71
2023/06/03 12:10:19;;;;;;;5.68;3.28;;;26.50;98.50;;;;;;5019879;28;20022;-71
2023/06/03 12:12:57;;;;;;;5.00;3.28;;;26.50;99.90;;;;;;5002477;28;20033;-71
2023/06/03 12:15:24;;;;;;;5.35;3.20;;;26.90;99.60;;;;;;5017767;28;20022;-71
2023/06/03 12:17:51;;;;;;;4.85;3.15;;;27.10;98.40;;;;;;5019794;28;20402;-72
2023/06/03 12:20:27;;;;;;;5.75;3.38;;;27.00;97.50;;;;;;5018468;28;20050;-72
2023/06/03 12:23:01;;;;;;;5.35;3.30;;;27.00;97.70;;;;;;5019814;28;20390;-72
2023/06/03 12:25:29;;;;;;;4.78;3.40;;;27.10;99.90;;;;;;5018289;28;20034;-72
2023/06/03 12:27:56;;;;;;;8.40;3.83;;;27.30;99.70;;;;;;5001861;28;20025;-72
2023/06/03 12:30:32;;;;;;;4.75;3.35;;;27.40;98.30;;;;;;5019761;28;20083;-70
2023/06/03 12:32:58;;;;;;;6.03;2.90;;;27.60;99.80;;;;;;5001834;28;20026;-72
2023/06/03 12:35:28;;;;;;;4.75;3.47;;;27.60;98.00;;;;;;5019763;28;20449;-72
2023/06/03 12:38:08;;;;;;;10.27;3.50;;;27.60;97.10;;;;;;5019512;28;20451;-72
2023/06/03 12:40:35;;;;;;;5.25;4.22;;;27.30;96.40;;;;;;5019284;28;20018;-72
2023/06/03 12:43:02;;;;;;;5.18;3.17;;;27.30;97.60;;;;;;5019378;28;20038;-73
2023/06/03 12:45:28;;;;;;;5.85;3.35;;;27.60;96.20;;;;;;5001479;28;20033;-72
2023/06/03 12:47:55;;;;;;;3.83;2.15;;;27.80;95.70;;;;;;5000062;28;20039;-70
2023/06/03 12:50:29;;;;;;;3.80;2.90;;;27.90;95.40;;;;;;5001609;28;20129;-72